createdAt,value
2018-01-06T00:01:47.128Z,66.62
2018-01-06T00:04:13.611Z,66.42
2018-01-06T00:06:40.092Z,66.83
2018-01-06T00:09:06.457Z,66.79
2018-01-06T00:11:32.867Z,66.01
2018-01-06T00:13:59.332Z,66.17
2018-01-06T00:16:25.696Z,66.50
2018-01-06T00:18:52.156Z,66.88
2018-01-06T00:21:18.604Z,66.96
2018-01-06T00:23:45.029Z,67.22
2018-01-06T00:26:11.419Z,67.45
2018-01-06T00:28:37.876Z,67.07
2018-01-06T00:31:04.298Z,66.84
2018-01-06T00:33:30.732Z,66.40
2018-01-06T00:35:57.176Z,66.40
2018-01-06T00:38:23.588Z,65.84
2018-01-06T00:40:49.987Z,66.68
2018-01-06T00:43:16.406Z,66.63
2018-01-06T00:45:42.869Z,66.34
2018-01-06T00:48:09.251Z,65.88
2018-01-06T00:50:35.688Z,66.40
2018-01-06T00:53:02.119Z,66.17
2018-01-06T00:55:28.489Z,66.43
2018-01-06T00:57:54.980Z,67.09
2018-01-06T01:00:21.555Z,66.70
2018-01-06T01:02:47.977Z,66.88
2018-01-06T01:05:14.444Z,67.09
2018-01-06T01:07:40.877Z,66.57
2018-01-06T01:10:07.343Z,66.58
2018-01-06T01:12:33.752Z,66.47
2018-01-06T01:15:00.102Z,66.26
2018-01-06T01:17:26.463Z,67.41
2018-01-06T01:19:52.988Z,67.59
2018-01-06T01:22:19.502Z,67.17
2018-01-06T01:24:45.920Z,67.16
2018-01-06T01:27:12.462Z,66.81
2018-01-06T01:29:38.950Z,66.58
2018-01-06T01:32:05.387Z,66.61
2018-01-06T01:34:31.923Z,71.06
2018-01-06T01:36:58.332Z,68.79
2018-01-06T01:39:24.826Z,67.21
2018-01-06T01:41:51.428Z,67.09
2018-01-06T01:44:17.945Z,66.85
2018-01-06T01:46:44.375Z,66.38
2018-01-06T01:49:10.844Z,66.54
2018-01-06T01:51:37.260Z,67.39
2018-01-06T01:54:03.672Z,67.48
2018-01-06T01:56:30.098Z,67.74
2018-01-06T01:58:56.453Z,67.25
2018-01-06T02:01:22.871Z,67.96
2018-01-06T02:03:49.352Z,67.84
2018-01-06T02:06:15.820Z,67.17
2018-01-06T02:08:42.171Z,67.41
2018-01-06T02:11:08.591Z,68.15
2018-01-06T02:13:34.980Z,67.87
2018-01-06T02:16:01.501Z,68.21
2018-01-06T02:18:27.911Z,67.91
2018-01-06T02:20:54.331Z,67.77
2018-01-06T02:23:20.720Z,67.75
2018-01-06T02:25:47.090Z,67.32
2018-01-06T02:28:13.540Z,67.40
2018-01-06T02:30:39.903Z,67.19
2018-01-06T02:33:06.379Z,67.84
2018-01-06T02:35:32.780Z,67.06
2018-01-06T02:37:59.288Z,66.98
2018-01-06T02:40:25.755Z,67.00
2018-01-06T02:42:52.119Z,66.84
2018-01-06T02:45:18.695Z,67.68
2018-01-06T02:47:45.151Z,67.53
2018-01-06T02:50:11.606Z,67.05
2018-01-06T02:52:38.037Z,67.05
2018-01-06T02:55:04.492Z,66.89
2018-01-06T02:57:30.912Z,66.91
2018-01-06T02:59:57.323Z,66.89
2018-01-06T03:02:23.756Z,66.29
2018-01-06T03:04:50.215Z,66.45
2018-01-06T03:07:16.588Z,67.37
2018-01-06T03:09:42.973Z,66.70
2018-01-06T03:12:09.361Z,66.82
2018-01-06T03:14:35.707Z,67.62
2018-01-06T03:17:02.131Z,67.55
2018-01-06T03:19:28.499Z,67.33
2018-01-06T03:21:54.963Z,66.76
2018-01-06T03:24:21.440Z,67.28
2018-01-06T03:26:47.927Z,67.10
2018-01-06T03:29:14.355Z,67.13
2018-01-06T03:31:40.818Z,66.87
2018-01-06T03:34:07.249Z,67.43
2018-01-06T03:36:33.631Z,68.22
2018-01-06T03:39:00.076Z,67.88
2018-01-06T03:41:26.438Z,67.50
2018-01-06T03:43:52.918Z,67.62
2018-01-06T03:46:19.332Z,67.89
2018-01-06T03:48:45.755Z,67.74
2018-01-06T03:51:12.207Z,67.92
2018-01-06T03:53:38.579Z,67.74
2018-01-06T03:56:04.997Z,68.65
2018-01-06T03:58:31.439Z,68.27
2018-01-06T04:00:58.008Z,67.94
2018-01-06T04:03:24.422Z,67.65
2018-01-06T04:05:50.783Z,67.29
2018-01-06T04:08:17.223Z,67.88
2018-01-06T04:10:43.614Z,67.74
2018-01-06T04:13:10.018Z,68.20
2018-01-06T04:15:36.454Z,68.28
2018-01-06T04:18:02.884Z,67.81
2018-01-06T04:20:29.282Z,67.41
2018-01-06T04:22:55.764Z,67.37
2018-01-06T04:25:22.134Z,67.48
2018-01-06T04:27:48.556Z,67.17
2018-01-06T04:30:15.049Z,67.52
2018-01-06T04:32:41.404Z,67.66
2018-01-06T04:35:07.828Z,67.85
2018-01-06T04:37:34.299Z,67.67
2018-01-06T04:40:00.708Z,67.57
2018-01-06T04:42:27.119Z,67.37
2018-01-06T04:44:53.595Z,67.63
2018-01-06T04:47:20.107Z,67.66
2018-01-06T04:49:46.515Z,67.87
2018-01-06T04:52:12.988Z,68.25
2018-01-06T04:54:39.396Z,68.28
2018-01-06T04:57:05.778Z,67.70
2018-01-06T04:59:32.211Z,68.68
2018-01-06T05:01:58.616Z,67.87
2018-01-06T05:04:25.088Z,67.99
2018-01-06T05:06:51.487Z,68.81
2018-01-06T05:09:17.870Z,68.87
2018-01-06T05:11:44.339Z,68.22
2018-01-06T05:14:10.760Z,68.72
2018-01-06T05:16:37.168Z,67.66
2018-01-06T05:19:03.694Z,67.70
2018-01-06T05:21:30.127Z,68.06
2018-01-06T05:23:56.467Z,67.65
2018-01-06T05:26:22.927Z,67.85
2018-01-06T05:28:49.384Z,67.75
2018-01-06T05:31:15.800Z,68.59
2018-01-06T05:33:42.204Z,69.23
2018-01-06T05:36:08.680Z,68.56
2018-01-06T05:38:35.125Z,68.62
2018-01-06T05:41:01.508Z,69.76
2018-01-06T05:43:28.000Z,68.54
2018-01-06T05:45:54.493Z,68.32
2018-01-06T05:48:20.931Z,68.05
2018-01-06T05:50:47.332Z,67.93
2018-01-06T05:53:13.705Z,67.76
2018-01-06T05:55:40.099Z,67.46
2018-01-06T05:58:06.610Z,67.41
2018-01-06T06:00:32.992Z,67.12
2018-01-06T06:02:59.425Z,67.85
2018-01-06T06:05:25.888Z,67.08
2018-01-06T06:07:52.276Z,67.34
2018-01-06T06:10:18.676Z,67.57
2018-01-06T06:12:45.147Z,67.74
2018-01-06T06:15:11.541Z,67.72
2018-01-06T06:17:37.924Z,67.81
2018-01-06T06:20:04.356Z,67.96
2018-01-06T06:22:30.800Z,67.61
2018-01-06T06:24:57.262Z,67.63
2018-01-06T06:27:23.663Z,67.52
2018-01-06T06:29:50.079Z,67.56
2018-01-06T06:32:16.460Z,67.44
2018-01-06T06:34:42.857Z,67.44
2018-01-06T06:37:09.303Z,67.24
2018-01-06T06:39:35.744Z,66.92
2018-01-06T06:42:02.204Z,67.16
2018-01-06T06:44:28.586Z,67.35
2018-01-06T06:46:54.996Z,66.90
2018-01-06T06:49:21.448Z,67.41
2018-01-06T06:51:47.843Z,68.35
2018-01-06T06:54:14.322Z,68.46
2018-01-06T06:56:40.819Z,68.30
2018-01-06T06:59:07.347Z,68.01
2018-01-06T07:01:33.839Z,67.97
2018-01-06T07:04:00.275Z,68.21
2018-01-06T07:06:26.667Z,68.96
2018-01-06T07:08:53.033Z,68.58
2018-01-06T07:11:19.483Z,69.34
2018-01-06T07:13:45.887Z,68.81
2018-01-06T07:16:12.347Z,68.76
2018-01-06T07:18:38.843Z,69.03
2018-01-06T07:21:05.292Z,71.91
2018-01-06T07:23:31.647Z,72.92
2018-01-06T07:25:58.090Z,72.69
2018-01-06T07:28:24.463Z,69.89
2018-01-06T07:30:51.021Z,72.35
2018-01-06T07:33:17.487Z,70.46
2018-01-06T07:35:43.823Z,71.60
2018-01-06T07:38:10.204Z,69.52
2018-01-06T07:40:36.624Z,69.62
2018-01-06T07:43:03.018Z,69.75
2018-01-06T07:45:29.426Z,69.49
2018-01-06T07:47:55.800Z,72.25
2018-01-06T07:50:22.216Z,71.34
2018-01-06T07:52:48.792Z,69.52
2018-01-06T07:55:15.216Z,69.16
2018-01-06T07:57:41.615Z,69.01
2018-01-06T08:00:08.012Z,69.58
2018-01-06T08:02:34.434Z,70.87
2018-01-06T08:05:00.915Z,71.33
2018-01-06T08:07:27.319Z,70.31
2018-01-06T08:09:53.812Z,69.88
2018-01-06T08:12:20.205Z,70.64
2018-01-06T08:14:46.676Z,70.61
2018-01-06T08:17:13.164Z,70.72
2018-01-06T08:19:39.652Z,70.40
2018-01-06T08:22:06.042Z,69.69
2018-01-06T08:24:32.464Z,69.78
2018-01-06T08:26:58.896Z,69.35
2018-01-06T08:29:25.344Z,67.97
2018-01-06T08:31:51.859Z,68.51
2018-01-06T08:34:18.288Z,67.05
2018-01-06T08:36:44.687Z,67.07
2018-01-06T08:39:11.189Z,66.20
2018-01-06T08:41:37.552Z,66.73
2018-01-06T08:44:03.928Z,67.35
2018-01-06T08:46:30.384Z,67.53
2018-01-06T08:48:56.813Z,67.37
2018-01-06T08:51:23.328Z,67.11
2018-01-06T08:53:49.779Z,66.93
2018-01-06T08:56:16.123Z,66.43
2018-01-06T08:58:42.557Z,67.05
2018-01-06T09:01:09.032Z,65.94
2018-01-06T09:03:35.418Z,66.20
2018-01-06T09:06:01.767Z,65.41
2018-01-06T09:08:28.164Z,65.26
2018-01-06T09:10:54.531Z,65.15
2018-01-06T09:13:20.945Z,64.76
2018-01-06T09:15:47.348Z,65.13
2018-01-06T09:18:13.747Z,63.90
2018-01-06T09:20:40.246Z,64.62
2018-01-06T09:23:06.760Z,64.02
2018-01-06T09:25:33.152Z,63.12
2018-01-06T09:27:59.504Z,63.41
2018-01-06T09:30:26.182Z,62.96
2018-01-06T09:32:52.567Z,63.63
2018-01-06T09:35:19.070Z,63.46
2018-01-06T09:37:45.476Z,63.81
2018-01-06T09:40:12.040Z,63.58
2018-01-06T09:42:38.454Z,62.67
2018-01-06T09:45:04.864Z,63.58
2018-01-06T09:47:31.212Z,62.47
2018-01-06T09:49:57.780Z,62.01
2018-01-06T09:52:24.216Z,62.41
2018-01-06T09:54:50.680Z,63.20
2018-01-06T09:57:17.107Z,64.22
2018-01-06T09:59:43.608Z,64.02
2018-01-06T10:02:09.964Z,62.53
2018-01-06T10:04:36.592Z,62.54
2018-01-06T10:07:03.060Z,62.28
2018-01-06T10:09:29.423Z,60.94
2018-01-06T10:11:55.798Z,60.92
2018-01-06T10:14:22.240Z,61.09
2018-01-06T10:16:48.659Z,60.96
2018-01-06T10:19:15.036Z,59.33
2018-01-06T10:21:41.535Z,61.10
2018-01-06T10:24:07.904Z,58.91
2018-01-06T10:26:34.374Z,58.85
2018-01-06T10:29:00.879Z,60.39
2018-01-06T10:31:27.285Z,60.58
2018-01-06T10:33:53.746Z,60.06
2018-01-06T10:36:20.188Z,58.31
2018-01-06T10:38:46.538Z,59.40
2018-01-06T10:41:12.973Z,58.31
2018-01-06T10:43:39.376Z,57.73
2018-01-06T10:46:05.723Z,57.30
2018-01-06T10:48:32.172Z,57.03
2018-01-06T10:50:58.587Z,56.56
2018-01-06T10:53:25.011Z,57.06
2018-01-06T10:55:51.464Z,55.86
2018-01-06T10:58:17.836Z,56.50
2018-01-06T11:00:50.388Z,58.72
2018-01-06T11:03:16.743Z,58.87
2018-01-06T11:05:43.248Z,56.43
2018-01-06T11:08:09.648Z,58.70
2018-01-06T11:10:36.182Z,56.15
2018-01-06T11:13:02.730Z,55.46
2018-01-06T11:15:29.140Z,57.09
2018-01-06T11:17:55.532Z,56.98
2018-01-06T11:20:22.057Z,55.75
2018-01-06T11:22:48.433Z,57.35
2018-01-06T11:25:14.808Z,57.86
2018-01-06T11:27:41.189Z,59.01
2018-01-06T11:30:07.596Z,59.22
2018-01-06T11:32:33.972Z,59.80
2018-01-06T11:35:00.460Z,60.29
2018-01-06T11:37:26.852Z,60.96
2018-01-06T11:39:53.232Z,60.57
2018-01-06T11:42:19.688Z,60.57
2018-01-06T11:44:46.122Z,62.02
2018-01-06T11:47:12.742Z,61.04
2018-01-06T11:49:39.108Z,59.86
2018-01-06T11:52:05.604Z,59.21
2018-01-06T11:54:31.987Z,59.52
2018-01-06T11:56:58.440Z,59.38
2018-01-06T11:59:24.803Z,59.67
2018-01-06T12:01:51.188Z,59.46
2018-01-06T12:04:17.627Z,60.46
2018-01-06T12:06:44.001Z,61.10
2018-01-06T12:09:10.417Z,61.16
2018-01-06T12:11:36.872Z,60.17
2018-01-06T12:14:03.249Z,60.80
2018-01-06T12:16:29.639Z,59.84
2018-01-06T12:18:56.147Z,60.81
2018-01-06T12:21:22.532Z,59.93
2018-01-06T12:23:48.904Z,59.17
2018-01-06T12:26:15.338Z,59.22
2018-01-06T12:28:41.724Z,58.42
2018-01-06T12:31:08.192Z,57.61
2018-01-06T12:33:34.609Z,57.65
2018-01-06T12:36:00.984Z,58.27
2018-01-06T12:38:27.433Z,58.87
2018-01-06T12:40:53.912Z,59.36
2018-01-06T12:43:20.311Z,59.41
2018-01-06T12:45:46.731Z,59.64
2018-01-06T12:48:13.186Z,59.89
2018-01-06T12:50:39.588Z,60.44
2018-01-06T12:53:05.987Z,60.12
2018-01-06T12:55:32.435Z,60.27
2018-01-06T12:57:58.819Z,61.24
2018-01-06T13:00:25.232Z,60.91
2018-01-06T13:02:51.733Z,61.58
2018-01-06T13:05:18.104Z,61.89
2018-01-06T13:07:44.508Z,62.15
2018-01-06T13:10:11.084Z,62.62
2018-01-06T13:12:37.455Z,63.48
2018-01-06T13:15:03.818Z,63.14
2018-01-06T13:17:30.339Z,62.78
2018-01-06T13:19:57.076Z,62.14
2018-01-06T13:22:23.560Z,61.61
2018-01-06T13:24:49.980Z,61.45
2018-01-06T13:27:16.356Z,62.14
2018-01-06T13:29:42.755Z,61.79
2018-01-06T13:32:09.314Z,61.92
2018-01-06T13:34:35.819Z,63.32
2018-01-06T13:37:02.209Z,62.76
2018-01-06T13:39:28.615Z,61.37
2018-01-06T13:41:55.033Z,62.92
2018-01-06T13:44:21.447Z,62.58
2018-01-06T13:46:47.907Z,61.97
2018-01-06T13:49:14.284Z,62.07
2018-01-06T13:51:40.760Z,61.73
2018-01-06T13:54:07.200Z,61.98
2018-01-06T13:56:33.553Z,62.15
2018-01-06T13:58:59.954Z,61.84
2018-01-06T14:01:26.392Z,61.92
2018-01-06T14:03:52.888Z,62.12
2018-01-06T14:06:19.263Z,61.47
2018-01-06T14:08:45.716Z,61.68
2018-01-06T14:11:12.227Z,62.14
2018-01-06T14:13:38.623Z,62.52
2018-01-06T14:16:05.043Z,62.29
2018-01-06T14:18:31.448Z,62.33
2018-01-06T14:20:57.839Z,62.64
2018-01-06T14:23:24.263Z,62.45
2018-01-06T14:25:50.639Z,62.19
2018-01-06T14:28:17.071Z,61.94
2018-01-06T14:30:43.549Z,62.00
2018-01-06T14:33:10.048Z,62.33
2018-01-06T14:35:36.487Z,62.24
2018-01-06T14:38:02.899Z,62.12
2018-01-06T14:40:29.336Z,62.30
2018-01-06T14:42:55.789Z,62.42
2018-01-06T14:45:22.264Z,62.42
2018-01-06T14:47:48.647Z,62.62
2018-01-06T14:50:15.088Z,62.79
2018-01-06T14:52:41.836Z,62.66
2018-01-06T14:55:08.699Z,62.80
2018-01-06T14:57:35.072Z,63.08
2018-01-06T15:00:01.563Z,63.26
2018-01-06T15:02:27.971Z,63.21
2018-01-06T15:04:54.476Z,63.30
2018-01-06T15:07:20.972Z,63.44
2018-01-06T15:09:47.442Z,63.66
2018-01-06T15:12:13.813Z,63.75
2018-01-06T15:14:40.311Z,64.08
2018-01-06T15:17:06.748Z,64.15
2018-01-06T15:19:33.126Z,64.35
2018-01-06T15:21:59.558Z,64.38
2018-01-06T15:24:25.953Z,64.47
2018-01-06T15:26:52.368Z,64.80
2018-01-06T15:29:18.908Z,64.90
2018-01-06T15:31:45.335Z,64.87
2018-01-06T15:34:11.798Z,64.72
2018-01-06T15:36:38.220Z,64.80
2018-01-06T15:39:04.621Z,64.94
2018-01-06T15:41:31.052Z,65.18
2018-01-06T15:43:57.513Z,65.32
2018-01-06T15:46:23.941Z,65.53
2018-01-06T15:48:50.525Z,65.48
2018-01-06T15:51:16.962Z,65.54
2018-01-06T15:53:43.338Z,65.80
2018-01-06T15:56:09.707Z,65.94
2018-01-06T15:58:36.179Z,66.10
2018-01-06T16:01:02.611Z,66.19
2018-01-06T16:03:29.028Z,66.18
2018-01-06T16:05:55.641Z,66.24
2018-01-06T16:08:22.060Z,66.51
2018-01-06T16:10:48.467Z,66.49
2018-01-06T16:13:14.862Z,66.37
2018-01-06T16:15:41.290Z,66.51
2018-01-06T16:18:07.709Z,66.64
2018-01-06T16:20:36.212Z,66.77
2018-01-06T16:23:02.596Z,66.80
2018-01-06T16:25:28.979Z,66.88
2018-01-06T16:27:55.540Z,66.94
2018-01-06T16:30:21.943Z,67.03
2018-01-06T16:32:48.400Z,67.12
2018-01-06T16:35:14.888Z,67.25
2018-01-06T16:37:41.252Z,67.15
2018-01-06T16:40:07.757Z,67.25
2018-01-06T16:42:34.283Z,67.32
2018-01-06T16:45:00.623Z,67.30
2018-01-06T16:47:27.207Z,67.13
2018-01-06T16:49:55.796Z,67.06
2018-01-06T16:52:22.244Z,67.36
2018-01-06T16:54:48.784Z,66.92
2018-01-06T16:57:15.188Z,66.74
2018-01-06T16:59:41.680Z,66.72
2018-01-06T17:02:08.080Z,66.59
2018-01-06T17:04:34.540Z,66.32
2018-01-06T17:07:01.207Z,66.02
2018-01-06T17:09:27.599Z,66.23
2018-01-06T17:11:54.032Z,66.38
2018-01-06T17:14:20.424Z,66.49
2018-01-06T17:16:46.833Z,66.14
2018-01-06T17:19:13.248Z,66.24
2018-01-06T17:21:39.743Z,66.02
2018-01-06T17:24:06.171Z,66.12
2018-01-06T17:26:32.656Z,66.17
2018-01-06T17:28:59.056Z,66.69
2018-01-06T17:31:25.413Z,66.64
2018-01-06T17:33:51.843Z,66.70
2018-01-06T17:36:18.489Z,66.12
2018-01-06T17:38:44.879Z,65.92
2018-01-06T17:41:11.273Z,66.34
2018-01-06T17:43:37.709Z,66.43
2018-01-06T17:46:04.097Z,66.26
2018-01-06T17:48:30.552Z,66.40
2018-01-06T17:50:57.332Z,66.06
2018-01-06T17:53:23.832Z,66.27
2018-01-06T17:55:50.208Z,66.26
2018-01-06T17:58:16.636Z,66.29
2018-01-06T18:00:43.067Z,66.26
2018-01-06T18:03:09.516Z,66.26
2018-01-06T18:05:35.981Z,66.21
2018-01-06T18:08:02.388Z,66.36
2018-01-06T18:10:28.912Z,66.72
2018-01-06T18:12:55.319Z,66.81
2018-01-06T18:15:21.732Z,66.52
2018-01-06T18:17:48.132Z,67.18
2018-01-06T18:20:14.599Z,66.47
2018-01-06T18:22:40.997Z,66.51
2018-01-06T18:25:07.547Z,66.81
2018-01-06T18:27:33.972Z,66.82
2018-01-06T18:30:00.396Z,66.79
2018-01-06T18:32:26.821Z,66.87
2018-01-06T18:34:53.256Z,66.68
2018-01-06T18:37:20.784Z,66.40
2018-01-06T18:39:47.227Z,66.90
2018-01-06T18:42:13.664Z,66.28
2018-01-06T18:44:40.144Z,66.76
2018-01-06T18:47:06.583Z,66.82
2018-01-06T18:49:32.976Z,67.00
2018-01-06T18:51:59.385Z,66.94
2018-01-06T18:54:25.839Z,66.55
2018-01-06T18:56:52.289Z,66.18
2018-01-06T18:59:18.716Z,66.73
2018-01-06T19:01:45.184Z,66.29
2018-01-06T19:04:11.632Z,67.35
2018-01-06T19:06:38.024Z,66.83
2018-01-06T19:09:04.476Z,67.24
2018-01-06T19:11:30.815Z,66.84
2018-01-06T19:13:57.236Z,67.11
2018-01-06T19:16:23.760Z,67.10
2018-01-06T19:18:50.221Z,66.84
2018-01-06T19:21:16.656Z,67.44
2018-01-06T19:23:43.032Z,67.74
2018-01-06T19:26:09.424Z,67.05
2018-01-06T19:28:35.911Z,66.61
2018-01-06T19:31:02.362Z,66.80
2018-01-06T19:33:28.820Z,66.56
2018-01-06T19:35:55.176Z,66.41
2018-01-06T19:38:21.583Z,66.70
2018-01-06T19:40:47.995Z,67.07
2018-01-06T19:43:14.371Z,68.12
2018-01-06T19:45:40.803Z,67.46
2018-01-06T19:48:07.187Z,67.44
2018-01-06T19:50:33.570Z,67.74
2018-01-06T19:52:59.977Z,67.36
2018-01-06T19:55:26.472Z,66.90
2018-01-06T19:57:52.845Z,67.53
2018-01-06T20:00:19.280Z,67.28
2018-01-06T20:02:45.662Z,67.97
2018-01-06T20:05:12.146Z,67.73
2018-01-06T20:07:38.639Z,67.61
2018-01-06T20:10:05.002Z,67.43
2018-01-06T20:12:31.372Z,67.57
2018-01-06T20:14:57.799Z,67.81
2018-01-06T20:17:24.168Z,68.21
2018-01-06T20:19:50.665Z,68.05
2018-01-06T20:22:17.116Z,67.92
2018-01-06T20:24:43.464Z,68.09
2018-01-06T20:27:09.923Z,67.77
2018-01-06T20:29:36.398Z,67.94
2018-01-06T20:32:02.804Z,68.15
2018-01-06T20:34:29.228Z,67.96
2018-01-06T20:36:55.734Z,68.02
2018-01-06T20:39:22.252Z,68.45
2018-01-06T20:41:48.684Z,67.84
2018-01-06T20:44:15.063Z,68.41
2018-01-06T20:46:41.507Z,68.33
2018-01-06T20:49:07.904Z,68.40
2018-01-06T20:51:34.360Z,68.40
2018-01-06T20:54:00.748Z,68.52
2018-01-06T20:56:27.160Z,68.42
2018-01-06T20:58:53.636Z,67.73
2018-01-06T21:01:19.979Z,67.68
2018-01-06T21:03:46.339Z,67.48
2018-01-06T21:06:12.827Z,67.79
2018-01-06T21:08:39.272Z,67.60
2018-01-06T21:11:05.663Z,68.22
2018-01-06T21:13:32.040Z,68.50
2018-01-06T21:15:58.536Z,68.08
2018-01-06T21:18:24.961Z,68.43
2018-01-06T21:20:51.451Z,68.65
2018-01-06T21:23:17.879Z,68.44
2018-01-06T21:25:44.321Z,68.77
2018-01-06T21:28:10.772Z,69.06
2018-01-06T21:30:37.251Z,68.40
2018-01-06T21:33:03.724Z,68.01
2018-01-06T21:35:30.467Z,68.00
2018-01-06T21:37:59.552Z,67.86
2018-01-06T21:40:25.914Z,68.18
2018-01-06T21:42:52.399Z,68.53
2018-01-06T21:45:18.819Z,67.85
2018-01-06T21:47:45.212Z,67.93
2018-01-06T21:50:11.647Z,68.11
2018-01-06T21:52:38.020Z,67.89
2018-01-06T21:55:04.464Z,67.71
2018-01-06T21:57:31.038Z,67.61
2018-01-06T21:59:58.612Z,67.32
2018-01-06T22:02:24.992Z,69.47
2018-01-06T22:04:51.448Z,68.24
2018-01-06T22:07:17.913Z,67.90
2018-01-06T22:09:44.325Z,68.03
2018-01-06T22:12:10.771Z,68.26
2018-01-06T22:14:37.143Z,68.26
2018-01-06T22:17:03.492Z,68.44
2018-01-06T22:19:30.025Z,68.82
2018-01-06T22:21:57.275Z,69.00
2018-01-06T22:24:23.732Z,68.21
2018-01-06T22:26:50.139Z,67.55
2018-01-06T22:29:16.495Z,67.65
2018-01-06T22:31:42.927Z,68.48
2018-01-06T22:34:09.413Z,68.30
2018-01-06T22:36:35.779Z,68.72
2018-01-06T22:39:02.231Z,68.43
2018-01-06T22:41:28.744Z,68.36
2018-01-06T22:43:55.119Z,67.62
2018-01-06T22:46:21.475Z,67.67
2018-01-06T22:48:47.924Z,67.97
2018-01-06T22:51:14.318Z,68.38
2018-01-06T22:53:40.696Z,68.77
2018-01-06T22:56:07.124Z,68.49
2018-01-06T22:58:33.547Z,68.11
2018-01-06T23:00:59.888Z,67.86
2018-01-06T23:03:26.315Z,67.73
2018-01-06T23:05:52.735Z,68.83
2018-01-06T23:08:19.146Z,68.81
2018-01-06T23:10:45.602Z,68.97
2018-01-06T23:13:12.015Z,68.93
2018-01-06T23:15:38.442Z,69.30
2018-01-06T23:18:04.859Z,68.58
2018-01-06T23:20:31.309Z,67.46
2018-01-06T23:22:57.751Z,67.17
2018-01-06T23:25:24.155Z,67.33
2018-01-06T23:27:50.571Z,67.79
2018-01-06T23:30:16.951Z,68.76
2018-01-06T23:32:43.431Z,68.12
2018-01-06T23:35:09.843Z,68.57
2018-01-06T23:37:36.300Z,68.26
2018-01-06T23:40:02.732Z,68.80
2018-01-06T23:42:29.142Z,69.02
2018-01-06T23:44:55.565Z,67.57
2018-01-06T23:47:21.967Z,67.55
2018-01-06T23:49:48.388Z,68.02
2018-01-06T23:52:14.815Z,68.91
2018-01-06T23:54:41.215Z,68.81
2018-01-06T23:57:07.631Z,68.34
2018-01-06T23:59:34.064Z,68.21
